createdAt,value
2022-12-09T00:00:05.619Z,100061.25
2022-12-09T00:02:32.942Z,100055.84
2022-12-09T00:04:59.531Z,100066.84
2022-12-09T00:07:27.226Z,100058.19
2022-12-09T00:09:53.841Z,100060.69
2022-12-09T00:12:20.331Z,100050.84
2022-12-09T00:14:47.206Z,100040.66
2022-12-09T00:17:14.049Z,100041.56
2022-12-09T00:19:40.615Z,100042.50
2022-12-09T00:22:07.078Z,100050.94
2022-12-09T00:24:33.749Z,100062.00
2022-12-09T00:27:00.249Z,100052.25
2022-12-09T00:29:26.730Z,100058.22
2022-12-09T00:31:53.355Z,100041.28
2022-12-09T00:34:19.904Z,100049.41
2022-12-09T00:36:48.002Z,100034.38
2022-12-09T00:39:14.438Z,100032.00
2022-12-09T00:41:40.899Z,100026.94
2022-12-09T00:44:09.325Z,100032.22
2022-12-09T00:46:35.868Z,100018.41
2022-12-09T00:49:03.826Z,100020.25
2022-12-09T00:51:31.228Z,100028.56
2022-12-09T00:53:57.715Z,100026.44
2022-12-09T00:56:26.575Z,100015.78
2022-12-09T00:58:53.281Z,100013.34
2022-12-09T01:01:20.289Z,100022.41
2022-12-09T01:03:46.843Z,100017.38
2022-12-09T01:06:18.265Z,100025.19
2022-12-09T01:08:45.869Z,100024.47
2022-12-09T01:11:23.271Z,100020.63
2022-12-09T01:13:50.446Z,100025.72
2022-12-09T01:16:19.803Z,100027.97
2022-12-09T01:18:47.477Z,100031.53
2022-12-09T01:21:14.566Z,100028.09
2022-12-09T01:23:41.785Z,100023.13
2022-12-09T01:26:10.583Z,100028.31
2022-12-09T01:28:39.664Z,100025.06
2022-12-09T01:31:13.997Z,100019.72
2022-12-09T01:33:41.091Z,100023.00
2022-12-09T01:36:15.273Z,100026.44
2022-12-09T01:38:41.935Z,100031.59
2022-12-09T01:41:08.792Z,100023.72
2022-12-09T01:43:35.657Z,100011.72
2022-12-09T01:46:02.534Z,100010.81
2022-12-09T01:48:40.397Z,100011.22
2022-12-09T01:51:16.501Z,100023.63
2022-12-09T01:53:48.346Z,100023.69
2022-12-09T01:56:25.531Z,100027.97
2022-12-09T01:58:55.096Z,100033.13
2022-12-09T02:01:21.876Z,100024.63
2022-12-09T02:03:49.589Z,100020.22
2022-12-09T02:06:17.391Z,100014.31
2022-12-09T02:08:45.027Z,100024.03
2022-12-09T02:11:31.440Z,100026.50
2022-12-09T02:14:10.197Z,100035.88
2022-12-09T02:16:46.140Z,100035.56
2022-12-09T02:19:39.392Z,100024.81
2022-12-09T02:22:08.506Z,100029.66
2022-12-09T02:25:26.019Z,100027.19
2022-12-09T02:28:20.667Z,100022.31
2022-12-09T02:31:21.519Z,100022.59
2022-12-09T02:34:13.635Z,100036.75
2022-12-09T02:36:57.327Z,100022.72
2022-12-09T02:39:56.598Z,100036.25
2022-12-09T02:42:26.610Z,100037.78
2022-12-09T02:44:53.451Z,100045.28
2022-12-09T02:47:28.438Z,100045.91
2022-12-09T02:49:59.985Z,100047.47
2022-12-09T02:52:28.298Z,100041.84
2022-12-09T02:54:55.374Z,100058.97
2022-12-09T02:57:28.186Z,100050.63
2022-12-09T02:59:54.730Z,100057.28
2022-12-09T03:02:31.152Z,100060.25
2022-12-09T03:05:21.327Z,100051.50
2022-12-09T03:08:09.659Z,100045.00
2022-12-09T03:10:53.625Z,100052.06
2022-12-09T03:13:46.299Z,100059.91
2022-12-09T03:16:36.114Z,100061.59
2022-12-09T03:19:09.282Z,100071.88
2022-12-09T03:21:40.856Z,100058.44
2022-12-09T03:24:10.304Z,100069.66
2022-12-09T03:26:38.957Z,100065.00
2022-12-09T03:29:11.046Z,100074.84
2022-12-09T03:31:40.507Z,100072.91
2022-12-09T03:34:09.730Z,100074.34
2022-12-09T03:36:39.764Z,100066.63
2022-12-09T03:39:11.166Z,100067.59
2022-12-09T03:41:40.970Z,100064.69
2022-12-09T03:44:10.340Z,100069.97
2022-12-09T03:46:37.967Z,100063.84
2022-12-09T03:49:04.869Z,100079.31
2022-12-09T03:51:48.256Z,100086.31
2022-12-09T03:54:25.804Z,100084.94
2022-12-09T03:56:54.435Z,100089.72
2022-12-09T03:59:23.854Z,100091.59
2022-12-09T04:01:51.740Z,100097.66
2022-12-09T04:04:18.653Z,100105.72
2022-12-09T04:06:45.446Z,100097.09
2022-12-09T04:09:12.195Z,100109.91
2022-12-09T04:11:38.734Z,100110.00
2022-12-09T04:14:08.060Z,100108.56
2022-12-09T04:16:37.241Z,100104.63
2022-12-09T04:19:03.762Z,100090.41
2022-12-09T04:21:30.265Z,100104.63
2022-12-09T04:23:57.033Z,100122.94
2022-12-09T04:26:24.791Z,100118.78
2022-12-09T04:28:51.326Z,100123.03
2022-12-09T04:31:19.830Z,100127.22
2022-12-09T04:33:48.393Z,100124.91
2022-12-09T04:36:18.061Z,100110.88
2022-12-09T04:38:44.887Z,100101.22
2022-12-09T04:41:11.917Z,100110.00
2022-12-09T04:43:38.588Z,100106.13
2022-12-09T04:46:08.115Z,100115.78
2022-12-09T04:48:36.119Z,100110.28
2022-12-09T04:51:03.181Z,100113.34
2022-12-09T04:53:29.999Z,100125.31
2022-12-09T04:56:05.715Z,100127.13
2022-12-09T04:58:32.513Z,100125.47
2022-12-09T05:00:59.706Z,100118.53
2022-12-09T05:03:26.773Z,100117.72
2022-12-09T05:05:53.444Z,100118.97
2022-12-09T05:08:20.344Z,100113.28
2022-12-09T05:10:49.808Z,100114.31
2022-12-09T05:13:17.195Z,100118.44
2022-12-09T05:15:43.762Z,100108.09
2022-12-09T05:18:10.470Z,100123.44
2022-12-09T05:20:39.654Z,100116.06
2022-12-09T05:23:09.501Z,100126.09
2022-12-09T05:25:36.829Z,100124.00
2022-12-09T05:28:03.315Z,100125.38
2022-12-09T05:30:30.030Z,100135.16
2022-12-09T05:32:56.865Z,100134.03
2022-12-09T05:35:23.714Z,100126.47
2022-12-09T05:37:50.186Z,100140.63
2022-12-09T05:40:18.530Z,100129.09
2022-12-09T05:42:45.141Z,100128.28
2022-12-09T05:45:11.921Z,100136.75
2022-12-09T05:47:38.909Z,100140.19
2022-12-09T05:50:08.637Z,100135.19
2022-12-09T05:52:37.760Z,100138.19
2022-12-09T05:55:06.946Z,100140.25
2022-12-09T05:57:34.403Z,100141.31
2022-12-09T06:00:01.323Z,100143.53
2022-12-09T06:02:27.976Z,100144.41
2022-12-09T06:04:55.609Z,100162.31
2022-12-09T06:07:23.466Z,100140.09
2022-12-09T06:09:50.565Z,100137.16
2022-12-09T06:12:17.567Z,100137.53
2022-12-09T06:14:44.311Z,100138.34
2022-12-09T06:17:11.831Z,100141.34
2022-12-09T06:19:38.516Z,100137.00
2022-12-09T06:22:05.437Z,100151.66
2022-12-09T06:24:32.520Z,100157.16
2022-12-09T06:26:59.056Z,100144.19
2022-12-09T06:29:25.767Z,100149.59
2022-12-09T06:31:52.360Z,100144.38
2022-12-09T06:34:19.027Z,100135.94
2022-12-09T06:36:46.326Z,100133.34
2022-12-09T06:39:13.839Z,100129.25
2022-12-09T06:41:42.137Z,100134.03
2022-12-09T06:44:11.700Z,100137.75
2022-12-09T06:46:39.135Z,100142.78
2022-12-09T06:49:05.855Z,100145.25
2022-12-09T06:51:33.241Z,100137.75
2022-12-09T06:53:59.840Z,100145.34
2022-12-09T06:56:27.109Z,100136.03
2022-12-09T06:58:53.685Z,100135.13
2022-12-09T07:01:26.017Z,100141.09
2022-12-09T07:03:55.673Z,100125.34
2022-12-09T07:06:31.134Z,100130.44
2022-12-09T07:09:01.159Z,100141.66
2022-12-09T07:11:28.671Z,100146.81
2022-12-09T07:13:56.266Z,100132.44
2022-12-09T07:16:23.122Z,100141.69
2022-12-09T07:18:50.410Z,100153.78
2022-12-09T07:21:19.490Z,100153.78
2022-12-09T07:23:46.625Z,100161.91
2022-12-09T07:26:14.342Z,100162.41
2022-12-09T07:28:42.634Z,100168.28
2022-12-09T07:31:30.248Z,100170.94
2022-12-09T07:33:58.945Z,100169.13
2022-12-09T07:36:27.986Z,100173.53
2022-12-09T07:39:00.251Z,100168.22
2022-12-09T07:41:27.312Z,100174.84
2022-12-09T07:43:54.412Z,100178.75
2022-12-09T07:46:23.831Z,100183.91
2022-12-09T07:48:51.085Z,100174.88
2022-12-09T07:51:17.958Z,100178.19
2022-12-09T07:53:45.307Z,100172.19
2022-12-09T07:56:14.759Z,100175.59
2022-12-09T07:58:42.457Z,100164.44
2022-12-09T08:01:13.604Z,100170.16
2022-12-09T08:03:42.533Z,100160.06
2022-12-09T08:06:14.032Z,100140.81
2022-12-09T08:08:42.074Z,100153.16
2022-12-09T08:11:13.826Z,100135.72
2022-12-09T08:13:42.408Z,100139.75
2022-12-09T08:16:12.395Z,100131.63
2022-12-09T08:18:40.651Z,100123.19
2022-12-09T08:21:11.207Z,100107.41
2022-12-09T08:23:38.874Z,100093.31
2022-12-09T08:26:06.833Z,100098.34
2022-12-09T08:28:33.910Z,100090.69
2022-12-09T08:31:07.347Z,100068.03
2022-12-09T08:33:34.445Z,100066.03
2022-12-09T08:36:09.694Z,100062.97
2022-12-09T08:38:36.462Z,100050.09
2022-12-09T08:41:14.947Z,100052.25
2022-12-09T08:43:43.548Z,100037.25
2022-12-09T08:46:10.631Z,100035.34
2022-12-09T08:48:39.804Z,100033.59
2022-12-09T08:51:08.050Z,100041.59
2022-12-09T08:53:35.065Z,100047.53
2022-12-09T08:56:12.954Z,100051.00
2022-12-09T08:58:40.486Z,100049.69
2022-12-09T09:01:07.560Z,100048.59
2022-12-09T09:03:35.168Z,100055.13
2022-12-09T09:06:09.559Z,100053.44
2022-12-09T09:08:39.206Z,100056.91
2022-12-09T09:11:18.051Z,100057.84
2022-12-09T09:13:47.032Z,100055.16
2022-12-09T09:16:16.756Z,100057.97
2022-12-09T09:18:44.204Z,100050.53
2022-12-09T09:21:14.143Z,100052.53
2022-12-09T09:23:42.034Z,100052.53
2022-12-09T09:26:13.745Z,100055.75
2022-12-09T09:28:41.212Z,100051.75
2022-12-09T09:31:10.927Z,100051.53
2022-12-09T09:33:38.119Z,100057.44
2022-12-09T09:36:10.439Z,100047.91
2022-12-09T09:38:37.736Z,100055.47
2022-12-09T09:41:18.880Z,100057.44
2022-12-09T09:43:45.882Z,100057.66
2022-12-09T09:46:21.821Z,100060.19
2022-12-09T09:48:51.108Z,100055.75
2022-12-09T09:51:20.659Z,100059.25
2022-12-09T09:53:51.437Z,100064.94
2022-12-09T09:56:43.195Z,100071.53
2022-12-09T09:59:24.645Z,100078.41
2022-12-09T10:02:20.969Z,100068.72
2022-12-09T10:05:03.724Z,100065.25
2022-12-09T10:07:41.352Z,100067.03
2022-12-09T10:10:28.704Z,100064.44
2022-12-09T10:13:29.423Z,100061.56
2022-12-09T10:16:06.521Z,100061.38
2022-12-09T10:18:39.866Z,100048.56
2022-12-09T10:21:19.389Z,100050.59
2022-12-09T10:23:46.901Z,100052.03
2022-12-09T10:26:26.535Z,100049.00
2022-12-09T10:29:11.495Z,100044.41
2022-12-09T10:31:38.970Z,100043.41
2022-12-09T10:34:05.826Z,100031.38
2022-12-09T10:36:36.016Z,100042.25
2022-12-09T10:39:05.195Z,100045.19
2022-12-09T10:42:05.622Z,100049.09
2022-12-09T10:44:32.796Z,100057.22
2022-12-09T10:47:05.447Z,100068.22
2022-12-09T10:49:35.867Z,100073.56
2022-12-09T10:52:04.620Z,100064.06
2022-12-09T10:54:36.496Z,100065.53
2022-12-09T10:57:12.889Z,100062.78
2022-12-09T10:59:42.443Z,100053.44
2022-12-09T11:02:09.057Z,100061.69
2022-12-09T11:04:41.777Z,100069.06
2022-12-09T11:07:11.933Z,100074.16
2022-12-09T11:09:45.826Z,100077.38
2022-12-09T11:12:29.340Z,100073.72
2022-12-09T11:15:05.860Z,100086.34
2022-12-09T11:17:36.052Z,100092.63
2022-12-09T11:20:05.890Z,100101.59
2022-12-09T11:22:42.646Z,100117.94
2022-12-09T11:25:13.042Z,100120.78
2022-12-09T11:27:49.565Z,100132.28
2022-12-09T11:31:04.802Z,100136.38
2022-12-09T11:33:35.125Z,100136.09
2022-12-09T11:36:18.977Z,100121.63
2022-12-09T11:38:48.584Z,100128.47
2022-12-09T11:41:36.893Z,100139.84
2022-12-09T11:44:25.604Z,100131.06
2022-12-09T11:47:18.262Z,100148.34
2022-12-09T11:50:12.290Z,100145.69
2022-12-09T11:52:38.749Z,100170.75
2022-12-09T11:55:09.718Z,100177.72
2022-12-09T11:57:59.771Z,100179.38
2022-12-09T12:00:37.212Z,100178.53
2022-12-09T12:03:22.746Z,100194.56
2022-12-09T12:05:51.897Z,100187.81
2022-12-09T12:08:23.402Z,100186.03
2022-12-09T12:11:14.864Z,100192.50
2022-12-09T12:13:45.956Z,100188.94
2022-12-09T12:16:47.809Z,100182.59
2022-12-09T12:19:35.348Z,100175.25
2022-12-09T12:22:35.889Z,100167.13
2022-12-09T12:25:18.092Z,100182.59
2022-12-09T12:27:50.743Z,100187.56
2022-12-09T12:30:21.089Z,100174.38
2022-12-09T12:36:11.042Z,100166.13
2022-12-09T12:38:58.662Z,100173.50
2022-12-09T12:41:37.819Z,100167.75
2022-12-09T12:44:38.084Z,100174.41
2022-12-09T12:47:18.329Z,100179.22
2022-12-09T12:50:06.740Z,100180.72
2022-12-09T12:52:55.915Z,100194.03
2022-12-09T12:55:26.079Z,100189.66
2022-12-09T12:58:27.820Z,100192.22
2022-12-09T13:01:04.340Z,100183.56
2022-12-09T13:03:56.851Z,100179.03
2022-12-09T13:06:43.804Z,100164.84
2022-12-09T13:09:20.862Z,100145.50
2022-12-09T13:12:55.389Z,100152.28
2022-12-09T13:15:46.864Z,100147.00
2022-12-09T13:18:19.294Z,100161.16
2022-12-09T13:20:57.416Z,100168.38
2022-12-09T13:23:48.514Z,100161.38
2022-12-09T13:26:23.487Z,100166.81
2022-12-09T13:29:08.587Z,100154.28
2022-12-09T13:31:37.850Z,100164.16
2022-12-09T13:34:32.206Z,100142.81
2022-12-09T13:36:58.774Z,100146.81
2022-12-09T13:39:40.427Z,100134.97
2022-12-09T13:42:46.598Z,100136.88
2022-12-09T13:45:24.537Z,100135.28
2022-12-09T13:47:53.314Z,100123.59
2022-12-09T13:50:26.321Z,100124.09
2022-12-09T13:52:57.596Z,100115.84
2022-12-09T13:55:47.700Z,100125.66
2022-12-09T13:58:49.751Z,100127.84
2022-12-09T14:01:20.511Z,100111.63
2022-12-09T14:04:04.904Z,100108.84
2022-12-09T14:06:39.076Z,100100.59
2022-12-09T14:09:36.198Z,100087.59
2022-12-09T14:12:06.410Z,100078.31
2022-12-09T14:14:32.814Z,100062.41
2022-12-09T14:17:02.903Z,100055.06
2022-12-09T14:19:31.367Z,100043.00
2022-12-09T14:22:18.625Z,100038.44
2022-12-09T14:24:51.254Z,100024.91
2022-12-09T14:27:29.233Z,100024.28
2022-12-09T14:30:01.704Z,100013.06
2022-12-09T14:32:36.918Z,100016.38
2022-12-09T14:35:09.258Z,100000.28
2022-12-09T14:38:07.672Z,99986.31
2022-12-09T14:40:43.138Z,99977.09
2022-12-09T14:43:45.842Z,99974.88
2022-12-09T14:46:24.355Z,99964.63
2022-12-09T14:49:02.273Z,99952.13
2022-12-09T14:51:36.463Z,99952.16
2022-12-09T14:54:13.155Z,99931.28
2022-12-09T14:56:45.055Z,99932.50
2022-12-09T14:59:19.342Z,99916.69
2022-12-09T15:01:48.836Z,99900.84
2022-12-09T15:04:27.036Z,99894.03
2022-12-09T15:07:13.745Z,99898.63
2022-12-09T15:09:50.945Z,99905.72
2022-12-09T15:12:18.692Z,99918.22
2022-12-09T15:14:46.270Z,99918.34
2022-12-09T15:17:26.123Z,99927.09
2022-12-09T15:20:01.425Z,99936.78
2022-12-09T15:22:31.985Z,99940.13
2022-12-09T15:24:59.054Z,99951.44
2022-12-09T15:27:27.294Z,99953.31
2022-12-09T15:29:54.326Z,99961.13
2022-12-09T15:32:25.294Z,99982.03
2022-12-09T15:34:53.034Z,99998.66
2022-12-09T15:37:24.840Z,100005.00
2022-12-09T15:39:59.443Z,100016.94
2022-12-09T15:42:29.967Z,100055.25
2022-12-09T15:45:06.394Z,100065.50
2022-12-09T15:47:46.390Z,100082.81
2022-12-09T15:50:30.790Z,100089.66
2022-12-09T15:53:11.004Z,100092.59
2022-12-09T15:55:39.622Z,100113.38
2022-12-09T15:58:10.284Z,100123.28
2022-12-09T16:00:43.764Z,100123.66
2022-12-09T16:03:10.456Z,100122.78
2022-12-09T16:05:41.871Z,100128.44
2022-12-09T16:08:09.906Z,100124.50
2022-12-09T16:10:46.788Z,100133.06
2022-12-09T16:13:17.116Z,100136.41
2022-12-09T16:15:44.678Z,100143.47
2022-12-09T16:18:35.092Z,100145.81
2022-12-09T16:21:13.346Z,100145.66
2022-12-09T16:23:40.990Z,100155.81
2022-12-09T16:26:07.864Z,100164.66
2022-12-09T16:28:34.722Z,100172.56
2022-12-09T16:31:18.049Z,100168.41
2022-12-09T16:33:48.623Z,100169.53
2022-12-09T16:36:19.309Z,100173.88
2022-12-09T16:39:09.338Z,100173.78
2022-12-09T16:41:51.147Z,100190.31
2022-12-09T16:44:27.849Z,100191.34
2022-12-09T16:47:22.001Z,100203.72
2022-12-09T16:49:48.618Z,100215.13
2022-12-09T16:52:20.425Z,100220.25
2022-12-09T16:54:49.971Z,100215.84
2022-12-09T16:57:18.281Z,100222.84
2022-12-09T16:59:44.961Z,100227.22
2022-12-09T17:02:31.950Z,100237.63
2022-12-09T17:04:58.986Z,100243.06
2022-12-09T17:07:25.432Z,100248.19
2022-12-09T17:09:53.834Z,100253.09
2022-12-09T17:12:20.347Z,100263.50
2022-12-09T17:14:46.849Z,100265.38
2022-12-09T17:17:13.361Z,100276.69
2022-12-09T17:19:42.969Z,100286.22
2022-12-09T17:22:10.500Z,100289.38
2022-12-09T17:24:37.473Z,100308.34
2022-12-09T17:27:03.942Z,100312.22
2022-12-09T17:29:30.343Z,100324.06
2022-12-09T17:31:57.084Z,100334.25
2022-12-09T17:34:23.554Z,100340.19
2022-12-09T17:36:49.962Z,100349.56
2022-12-09T17:39:17.866Z,100355.69
2022-12-09T17:41:44.295Z,100356.50
2022-12-09T17:44:10.740Z,100368.56
2022-12-09T17:46:37.243Z,100374.66
2022-12-09T17:49:03.784Z,100381.69
2022-12-09T17:51:35.658Z,100390.41
2022-12-09T17:54:03.077Z,100397.44
2022-12-09T17:56:29.532Z,100393.81
2022-12-09T17:59:09.063Z,100401.72
2022-12-09T18:01:37.148Z,100412.88
2022-12-09T18:04:09.422Z,100419.84
2022-12-09T18:06:41.451Z,100423.34
2022-12-09T18:09:11.105Z,100436.19
2022-12-09T18:11:38.203Z,100440.53
2022-12-09T18:14:05.405Z,100449.59
2022-12-09T18:16:32.196Z,100451.47
2022-12-09T18:19:08.584Z,100452.50
2022-12-09T18:21:35.434Z,100473.81
2022-12-09T18:24:03.314Z,100476.59
2022-12-09T18:26:32.193Z,100475.69
2022-12-09T18:29:00.557Z,100481.63
2022-12-09T18:31:27.342Z,100474.19
